createdAt,value
2023-05-24T00:00:01.789Z,23.10
2023-05-24T00:05:08.065Z,23.10
2023-05-24T00:10:12.523Z,23.10
2023-05-24T00:15:15.379Z,23.10
2023-05-24T00:20:20.700Z,23.10
2023-05-24T00:25:23.898Z,23.10
2023-05-24T00:30:27.027Z,23.10
2023-05-24T00:35:31.190Z,23.10
2023-05-24T00:40:34.064Z,23.00
2023-05-24T00:45:36.952Z,23.00
2023-05-24T00:50:42.298Z,23.00
2023-05-24T00:55:46.830Z,23.10
2023-05-24T01:00:51.175Z,23.00
2023-05-24T01:05:55.383Z,23.00
2023-05-24T01:11:02.431Z,23.00
2023-05-24T01:16:12.129Z,23.00
2023-05-24T01:21:38.897Z,23.00
2023-05-24T01:26:49.132Z,23.00
2023-05-24T01:31:53.543Z,23.00
2023-05-24T01:36:56.487Z,23.00
2023-05-24T01:42:08.616Z,22.90
2023-05-24T01:47:25.640Z,22.90
2023-05-24T01:52:31.865Z,22.90
2023-05-24T01:57:36.145Z,22.90
2023-05-24T02:02:40.609Z,22.90
2023-05-24T02:07:43.545Z,22.90
2023-05-24T02:12:46.410Z,22.90
2023-05-24T02:17:50.706Z,22.90
2023-05-24T02:22:53.735Z,22.90
2023-05-24T02:27:56.614Z,22.90
2023-05-24T02:33:00.858Z,22.80
2023-05-24T02:38:06.572Z,22.80
2023-05-24T02:43:09.801Z,22.80
2023-05-24T02:48:14.074Z,22.80
2023-05-24T02:53:16.974Z,22.80
2023-05-24T02:58:19.879Z,22.80
2023-05-24T03:03:24.207Z,22.80
2023-05-24T03:08:27.172Z,22.80
2023-05-24T03:13:30.168Z,22.80
2023-05-24T03:18:34.476Z,22.80
2023-05-24T03:23:37.418Z,22.70
2023-05-24T03:28:41.982Z,22.70
2023-05-24T03:33:46.205Z,22.70
2023-05-24T03:38:49.064Z,22.70
2023-05-24T03:43:52.392Z,22.70
2023-05-24T03:48:56.634Z,22.70
2023-05-24T03:53:59.801Z,22.70
2023-05-24T03:59:04.036Z,22.60
2023-05-24T04:04:08.363Z,22.70
2023-05-24T04:09:11.263Z,22.60
2023-05-24T04:14:14.123Z,22.60
2023-05-24T04:19:18.291Z,22.60
2023-05-24T04:24:21.138Z,22.60
2023-05-24T04:29:26.645Z,22.60
2023-05-24T04:34:33.772Z,22.60
2023-05-24T04:39:36.652Z,22.50
2023-05-24T04:44:41.158Z,22.50
2023-05-24T04:49:45.413Z,22.50
2023-05-24T04:54:48.222Z,22.50
2023-05-24T04:59:51.048Z,22.50
2023-05-24T05:04:55.302Z,22.50
2023-05-24T05:09:58.161Z,22.50
2023-05-24T05:15:01.092Z,22.50
2023-05-24T05:20:06.304Z,22.50
2023-05-24T05:25:09.886Z,22.50
2023-05-24T05:30:13.622Z,22.50
2023-05-24T05:35:17.942Z,22.50
2023-05-24T05:40:20.901Z,22.50
2023-05-24T05:45:23.889Z,22.40
2023-05-24T05:50:28.149Z,22.40
2023-05-24T05:55:31.011Z,22.40
2023-05-24T06:00:33.882Z,22.40
2023-05-24T06:05:38.074Z,22.50
2023-05-24T06:10:41.113Z,22.50
2023-05-24T06:15:44.327Z,22.50
2023-05-24T06:20:49.287Z,22.50
2023-05-24T06:25:52.149Z,22.50
2023-05-24T06:30:55.034Z,22.50
2023-05-24T06:35:59.304Z,22.50
2023-05-24T06:41:02.401Z,22.50
2023-05-24T06:46:05.308Z,22.50
2023-05-24T06:51:09.499Z,22.50
2023-05-24T06:56:12.367Z,22.50
2023-05-24T07:01:15.728Z,22.50
2023-05-24T07:06:20.021Z,22.50
2023-05-24T07:11:23.124Z,22.50
2023-05-24T07:16:26.193Z,22.50
2023-05-24T07:21:30.375Z,22.50
2023-05-24T07:26:33.279Z,22.50
2023-05-24T07:31:37.034Z,22.50
2023-05-24T07:36:42.231Z,22.50
2023-05-24T07:41:45.322Z,22.40
2023-05-24T07:46:48.339Z,22.50
2023-05-24T07:51:52.993Z,22.50
2023-05-24T07:56:57.431Z,22.50
2023-05-24T08:02:05.359Z,22.50
2023-05-24T08:07:11.109Z,22.50
2023-05-24T08:12:16.954Z,22.50
2023-05-24T08:17:20.182Z,22.50
2023-05-24T08:22:24.431Z,22.50
2023-05-24T08:27:28.773Z,22.50
2023-05-24T08:32:32.214Z,22.50
2023-05-24T08:37:36.478Z,22.50
2023-05-24T08:42:39.699Z,22.50
2023-05-24T08:47:42.936Z,22.50
2023-05-24T08:52:47.412Z,22.50
2023-05-24T08:57:51.403Z,22.50
2023-05-24T09:02:54.966Z,22.50
2023-05-24T09:08:01.235Z,22.50
2023-05-24T09:13:06.577Z,22.50
2023-05-24T09:18:09.479Z,22.60
2023-05-24T09:23:14.590Z,22.50
2023-05-24T09:28:19.518Z,22.60
2023-05-24T09:33:24.416Z,22.50
2023-05-24T09:38:29.727Z,22.60
2023-05-24T09:43:34.640Z,22.60
2023-05-24T09:48:37.497Z,22.60
2023-05-24T09:53:47.039Z,22.60
2023-05-24T09:58:50.049Z,22.60
2023-05-24T10:03:57.150Z,22.60
2023-05-24T10:09:01.799Z,22.60
2023-05-24T10:14:05.944Z,22.60
2023-05-24T10:19:08.841Z,22.60
2023-05-24T10:24:20.420Z,22.60
2023-05-24T10:29:34.524Z,22.60
2023-05-24T10:34:37.690Z,22.60
2023-05-24T10:39:43.070Z,22.60
2023-05-24T10:44:46.148Z,22.60
2023-05-24T10:49:51.416Z,22.60
2023-05-24T10:55:08.027Z,22.60
2023-05-24T11:05:36.785Z,22.60
2023-05-24T11:10:43.829Z,22.70
2023-05-24T11:15:51.934Z,22.70
2023-05-24T11:20:56.502Z,22.70
2023-05-24T11:26:00.705Z,22.70
2023-05-24T11:31:09.544Z,22.70
2023-05-24T11:36:12.531Z,22.70
2023-05-24T11:41:18.139Z,22.70
2023-05-24T11:46:21.327Z,22.70
2023-05-24T11:51:28.300Z,22.70
2023-05-24T11:56:34.089Z,22.70
2023-05-24T12:01:38.084Z,22.70
2023-05-24T12:06:43.056Z,22.70
2023-05-24T12:11:49.948Z,22.70
2023-05-24T12:16:57.033Z,22.70
2023-05-24T12:22:00.023Z,22.70
2023-05-24T12:27:07.267Z,22.80
2023-05-24T12:32:13.972Z,22.80
2023-05-24T12:37:18.970Z,22.80
2023-05-24T12:42:24.018Z,22.80
2023-05-24T12:47:27.294Z,22.70
2023-05-24T12:52:30.240Z,22.70
2023-05-24T12:57:34.501Z,22.80
2023-05-24T13:02:39.492Z,22.80
2023-05-24T13:07:46.021Z,22.80
2023-05-24T13:12:50.477Z,22.80
2023-05-24T13:17:53.657Z,22.80
2023-05-24T13:22:56.576Z,22.80
2023-05-24T13:28:00.768Z,22.80
2023-05-24T13:33:03.732Z,22.80
2023-05-24T13:38:06.695Z,22.80
2023-05-24T13:43:10.901Z,22.80
2023-05-24T13:48:13.768Z,22.80
2023-05-24T13:53:16.650Z,22.80
2023-05-24T13:58:21.319Z,22.80
2023-05-24T14:03:24.307Z,22.80
2023-05-24T14:08:27.242Z,22.80
2023-05-24T14:14:35.462Z,22.80
2023-05-24T14:18:54.283Z,22.70
2023-05-24T14:23:57.164Z,22.70
2023-05-24T14:29:01.644Z,22.70
2023-05-24T14:34:04.529Z,22.70
2023-05-24T14:39:07.680Z,22.70
2023-05-24T14:44:11.861Z,22.70
2023-05-24T14:49:14.820Z,22.70
2023-05-24T14:54:17.860Z,22.70
2023-05-24T14:59:22.053Z,22.70
2023-05-24T15:04:24.889Z,22.70
2023-05-24T15:09:27.733Z,22.70
2023-05-24T15:14:31.920Z,22.70
2023-05-24T15:19:34.765Z,22.70
2023-05-24T15:24:38.598Z,22.70
2023-05-24T15:29:42.794Z,22.70
2023-05-24T15:34:45.844Z,22.70
2023-05-24T15:39:49.143Z,22.40
2023-05-24T15:44:53.311Z,22.30
2023-05-24T15:49:56.332Z,22.20
2023-05-24T15:54:59.240Z,22.10
2023-05-24T16:00:03.898Z,21.80
2023-05-24T16:05:07.428Z,21.70
2023-05-24T16:10:10.614Z,21.80
2023-05-24T16:15:14.791Z,21.90
2023-05-24T16:20:17.732Z,21.90
2023-05-24T16:25:20.678Z,21.70
2023-05-24T16:30:25.534Z,21.80
2023-05-24T16:35:28.416Z,21.80
2023-05-24T16:40:31.248Z,21.90
2023-05-24T16:45:35.463Z,21.90
2023-05-24T16:50:38.339Z,21.90
2023-05-24T16:55:41.386Z,21.70
2023-05-24T17:00:45.770Z,21.50
2023-05-24T17:05:50.267Z,21.60
2023-05-24T17:10:56.242Z,21.60
2023-05-24T17:16:00.954Z,21.70
2023-05-24T17:21:05.583Z,21.70
2023-05-24T17:26:09.538Z,21.70
2023-05-24T17:31:15.069Z,21.80
2023-05-24T17:36:18.083Z,21.80
2023-05-24T17:41:20.962Z,21.80
2023-05-24T17:46:25.249Z,21.80
2023-05-24T17:51:28.167Z,21.90
2023-05-24T17:56:31.492Z,21.90
2023-05-24T18:01:36.390Z,22.00
2023-05-24T18:06:39.371Z,22.20
2023-05-24T18:11:42.223Z,22.40
2023-05-24T18:16:46.632Z,22.80
2023-05-24T18:21:50.238Z,23.30
2023-05-24T18:26:53.125Z,23.70
2023-05-24T18:31:57.365Z,24.00
2023-05-24T18:37:00.364Z,24.30
2023-05-24T18:42:03.690Z,24.50
2023-05-24T18:47:11.070Z,24.60
2023-05-24T18:52:13.908Z,24.70
2023-05-24T18:57:16.778Z,24.80
2023-05-24T19:02:21.006Z,25.00
2023-05-24T19:07:24.046Z,25.20
2023-05-24T19:12:26.926Z,25.40
2023-05-24T19:17:31.127Z,25.60
2023-05-24T19:22:34.182Z,25.70
2023-05-24T19:27:39.813Z,25.80
2023-05-24T19:32:49.201Z,25.90
2023-05-24T19:37:52.548Z,26.00
2023-05-24T19:42:55.389Z,26.00
2023-05-24T19:47:59.638Z,26.10
2023-05-24T19:53:02.592Z,26.00
2023-05-24T19:58:05.466Z,26.00
2023-05-24T20:03:09.983Z,26.00
2023-05-24T20:08:13.254Z,25.90
2023-05-24T20:13:16.188Z,25.90
2023-05-24T20:18:20.396Z,25.90
2023-05-24T20:23:27.273Z,25.80
2023-05-24T20:28:31.784Z,25.80
2023-05-24T20:33:38.383Z,25.70
2023-05-24T20:38:41.478Z,25.70
2023-05-24T20:43:44.347Z,25.60
2023-05-24T20:48:48.539Z,25.60
2023-05-24T20:53:53.073Z,25.50
2023-05-24T20:58:59.223Z,25.50
2023-05-24T21:04:03.452Z,25.50
2023-05-24T21:09:06.467Z,25.40
2023-05-24T21:14:09.342Z,25.40
2023-05-24T21:19:13.538Z,25.30
2023-05-24T21:24:16.563Z,25.30
2023-05-24T21:29:20.400Z,25.20
2023-05-24T21:34:24.607Z,25.10
2023-05-24T21:39:27.458Z,25.10
2023-05-24T21:44:30.306Z,25.00
2023-05-24T21:49:34.520Z,24.90
2023-05-24T21:54:37.375Z,24.90
2023-05-24T21:59:40.247Z,24.80
2023-05-24T22:04:44.462Z,24.80
2023-05-24T22:09:47.360Z,24.70
2023-05-24T22:14:50.378Z,24.70
2023-05-24T22:19:54.654Z,24.60
2023-05-24T22:24:57.588Z,24.60
2023-05-24T22:30:01.302Z,24.50
2023-05-24T22:35:06.022Z,24.40
2023-05-24T22:40:09.674Z,24.40
2023-05-24T22:45:13.925Z,24.30
2023-05-24T22:50:18.238Z,24.20
2023-05-24T22:55:21.221Z,24.20
2023-05-24T23:00:24.207Z,24.10
2023-05-24T23:05:29.022Z,24.10
2023-05-24T23:10:31.996Z,24.00
2023-05-24T23:15:34.888Z,24.00
2023-05-24T23:20:40.144Z,23.80
2023-05-24T23:25:43.497Z,23.80
2023-05-24T23:30:46.974Z,23.80
2023-05-24T23:35:51.276Z,23.80
2023-05-24T23:40:54.201Z,23.70
2023-05-24T23:45:57.052Z,23.60
2023-05-24T23:51:04.467Z,23.60
2023-05-24T23:56:07.456Z,23.50
